createdAt,value
2023-02-14T00:02:15.718Z,2.05
2023-02-14T00:04:45.900Z,1.73
2023-02-14T00:07:14.764Z,1.80
2023-02-14T00:09:42.951Z,1.67
2023-02-14T00:12:11.531Z,2.12
2023-02-14T00:14:58.403Z,1.90
2023-02-14T00:17:26.864Z,2.47
2023-02-14T00:19:55.028Z,2.25
2023-02-14T00:22:23.311Z,1.75
2023-02-14T00:24:51.918Z,1.77
2023-02-14T00:27:20.117Z,1.65
2023-02-14T00:29:48.400Z,1.80
2023-02-14T00:32:16.925Z,1.52
2023-02-14T00:34:46.165Z,2.53
2023-02-14T00:37:14.371Z,2.87
2023-02-14T00:39:42.910Z,1.62
2023-02-14T00:42:11.037Z,1.45
2023-02-14T00:44:40.024Z,1.85
2023-02-14T00:47:08.615Z,2.60
2023-02-14T00:49:36.703Z,2.10
2023-02-14T00:52:05.466Z,1.75
2023-02-14T00:54:33.966Z,2.10
2023-02-14T00:57:02.092Z,1.90
2023-02-14T00:59:30.741Z,1.65
2023-02-14T01:01:59.056Z,2.00
2023-02-14T01:04:27.338Z,1.75
2023-02-14T01:06:55.527Z,1.62
2023-02-14T01:09:24.090Z,2.35
2023-02-14T01:11:52.350Z,2.03
2023-02-14T01:14:20.596Z,1.67
2023-02-14T01:16:50.696Z,1.92
2023-02-14T01:19:18.825Z,2.17
2023-02-14T01:21:47.167Z,2.97
2023-02-14T01:24:15.595Z,2.37
2023-02-14T01:26:44.311Z,1.37
2023-02-14T01:29:12.665Z,1.45
2023-02-14T01:31:41.307Z,1.73
2023-02-14T01:34:09.567Z,1.92
2023-02-14T01:36:39.406Z,2.00
2023-02-14T01:39:13.613Z,2.40
2023-02-14T01:41:44.128Z,1.63
2023-02-14T01:44:15.259Z,1.77
2023-02-14T01:46:44.887Z,1.37
2023-02-14T01:49:27.451Z,1.73
2023-02-14T01:52:05.260Z,1.70
2023-02-14T01:54:38.736Z,2.20
2023-02-14T01:57:12.362Z,1.87
2023-02-14T01:59:55.167Z,1.50
2023-02-14T02:02:26.201Z,1.83
2023-02-14T02:04:56.647Z,1.65
2023-02-14T02:07:29.377Z,2.05
2023-02-14T02:10:03.726Z,2.12
2023-02-14T02:12:35.620Z,1.12
2023-02-14T02:15:06.083Z,1.23
2023-02-14T02:18:05.807Z,1.80
2023-02-14T02:21:01.698Z,1.33
2023-02-14T02:24:02.146Z,2.03
2023-02-14T02:26:30.242Z,1.40
2023-02-14T02:29:29.932Z,1.50
2023-02-14T02:32:19.770Z,1.40
2023-02-14T02:35:19.192Z,1.20
2023-02-14T02:38:16.647Z,1.20
2023-02-14T02:40:54.553Z,1.00
2023-02-14T02:43:22.754Z,1.20
2023-02-14T02:46:20.572Z,1.00
2023-02-14T02:49:42.557Z,1.20
2023-02-14T02:53:03.303Z,1.60
2023-02-14T02:55:57.792Z,0.60
2023-02-14T02:58:35.203Z,1.35
2023-02-14T03:01:09.681Z,1.83
2023-02-14T03:06:26.071Z,0.60
2023-02-14T03:08:54.444Z,1.12
2023-02-14T03:11:24.738Z,2.33
2023-02-14T03:14:26.389Z,1.50
2023-02-14T03:17:37.578Z,1.52
2023-02-14T03:20:32.919Z,1.40
2023-02-14T03:23:14.675Z,0.88
2023-02-14T03:26:04.870Z,0.80
2023-02-14T03:28:43.888Z,1.35
2023-02-14T03:31:28.288Z,2.20
2023-02-14T03:34:25.761Z,2.55
2023-02-14T03:37:12.671Z,2.33
2023-02-14T03:39:46.040Z,1.67
2023-02-14T03:42:23.868Z,1.65
2023-02-14T03:44:55.373Z,2.05
2023-02-14T03:47:30.011Z,2.50
2023-02-14T03:50:13.340Z,2.08
2023-02-14T03:52:44.355Z,2.08
2023-02-14T03:55:17.147Z,1.25
2023-02-14T03:57:48.481Z,2.22
2023-02-14T04:00:19.063Z,1.65
2023-02-14T04:02:56.206Z,2.58
2023-02-14T04:05:27.294Z,1.35
2023-02-14T04:07:58.582Z,1.77
2023-02-14T04:10:27.101Z,1.62
2023-02-14T04:12:55.579Z,1.98
2023-02-14T04:15:23.998Z,2.75
2023-02-14T04:18:10.612Z,2.00
2023-02-14T04:20:39.447Z,1.90
2023-02-14T04:23:07.579Z,1.87
2023-02-14T04:25:35.572Z,3.50
2023-02-14T04:28:06.366Z,1.77
2023-02-14T04:30:34.811Z,1.55
2023-02-14T04:33:03.843Z,1.42
2023-02-14T04:35:32.420Z,1.00
2023-02-14T04:38:04.846Z,1.05
2023-02-14T04:40:33.948Z,2.03
2023-02-14T04:43:02.121Z,1.20
2023-02-14T04:45:30.500Z,1.48
2023-02-14T04:47:59.020Z,1.60
2023-02-14T04:50:27.141Z,1.60
2023-02-14T04:52:55.313Z,2.08
2023-02-14T04:55:24.298Z,2.37
2023-02-14T04:57:52.384Z,2.85
2023-02-14T05:00:20.754Z,2.50
2023-02-14T05:02:53.686Z,1.83
2023-02-14T05:05:21.777Z,2.95
2023-02-14T05:07:50.544Z,2.15
2023-02-14T05:10:18.959Z,2.70
2023-02-14T05:12:47.002Z,1.92
2023-02-14T05:15:15.638Z,2.28
2023-02-14T05:17:43.917Z,3.15
2023-02-14T05:20:12.142Z,1.92
2023-02-14T05:22:40.613Z,2.92
2023-02-14T05:25:09.040Z,2.62
2023-02-14T05:27:37.173Z,2.58
2023-02-14T05:30:06.345Z,2.50
2023-02-14T05:32:35.230Z,2.75
2023-02-14T05:35:04.094Z,2.30
2023-02-14T05:37:32.404Z,1.95
2023-02-14T05:40:00.692Z,2.42
2023-02-14T05:42:28.854Z,3.05
2023-02-14T05:44:57.208Z,1.55
2023-02-14T05:47:25.546Z,1.92
2023-02-14T05:49:53.647Z,2.08
2023-02-14T05:52:22.029Z,1.98
2023-02-14T05:54:50.227Z,2.22
2023-02-14T05:57:18.350Z,2.83
2023-02-14T05:59:46.855Z,2.55
2023-02-14T06:02:16.255Z,2.10
2023-02-14T06:04:44.772Z,2.35
2023-02-14T06:07:13.104Z,2.37
2023-02-14T06:09:41.426Z,2.00
2023-02-14T06:12:09.815Z,2.40
2023-02-14T06:14:38.296Z,2.97
2023-02-14T06:17:06.761Z,2.62
2023-02-14T06:19:35.923Z,2.53
2023-02-14T06:22:04.667Z,3.00
2023-02-14T06:24:32.937Z,1.98
2023-02-14T06:27:01.483Z,3.67
2023-02-14T06:29:29.563Z,3.20
2023-02-14T06:31:58.097Z,2.72
2023-02-14T06:34:26.766Z,4.22
2023-02-14T06:36:54.911Z,3.65
2023-02-14T06:39:23.121Z,4.75
2023-02-14T06:41:51.545Z,3.67
2023-02-14T06:44:19.891Z,4.07
2023-02-14T06:46:48.711Z,4.78
2023-02-14T06:49:17.416Z,5.28
2023-02-14T06:51:45.868Z,4.47
2023-02-14T06:54:14.195Z,5.60
2023-02-14T06:56:42.721Z,4.45
2023-02-14T06:59:11.017Z,3.60
2023-02-14T07:01:39.665Z,3.25
2023-02-14T07:04:08.079Z,3.62
2023-02-14T07:06:37.353Z,3.70
2023-02-14T07:09:06.318Z,5.40
2023-02-14T07:11:34.705Z,3.90
2023-02-14T07:14:03.167Z,2.87
2023-02-14T07:16:31.602Z,3.22
2023-02-14T07:19:00.607Z,3.85
2023-02-14T07:21:29.311Z,2.78
2023-02-14T07:23:57.508Z,2.72
2023-02-14T07:26:25.990Z,3.17
2023-02-14T07:28:54.290Z,2.70
2023-02-14T07:31:23.693Z,2.70
2023-02-14T07:33:52.661Z,1.83
2023-02-14T07:36:20.762Z,2.05
2023-02-14T07:38:49.714Z,3.53
2023-02-14T07:41:18.050Z,2.75
2023-02-14T07:43:46.144Z,3.45
2023-02-14T07:46:15.153Z,3.20
2023-02-14T07:48:43.614Z,3.25
2023-02-14T07:51:11.724Z,2.85
2023-02-14T07:53:40.328Z,2.85
2023-02-14T07:56:08.687Z,2.60
2023-02-14T07:58:37.229Z,3.10
2023-02-14T08:01:05.663Z,2.20
2023-02-14T08:03:34.159Z,2.22
2023-02-14T08:06:02.304Z,2.87
2023-02-14T08:08:31.919Z,3.50
2023-02-14T08:11:00.681Z,2.55
2023-02-14T08:13:29.016Z,2.70
2023-02-14T08:16:06.708Z,3.45
2023-02-14T08:18:41.075Z,2.85
2023-02-14T08:21:11.337Z,3.08
2023-02-14T08:23:39.873Z,2.65
2023-02-14T08:26:08.435Z,2.25
2023-02-14T08:28:36.714Z,2.62
2023-02-14T08:31:05.417Z,3.35
2023-02-14T08:33:33.936Z,3.45
2023-02-14T08:36:02.730Z,3.62
2023-02-14T08:38:31.500Z,3.30
2023-02-14T08:41:03.782Z,3.03
2023-02-14T08:43:34.504Z,2.90
2023-02-14T08:46:03.228Z,3.80
2023-02-14T08:48:31.500Z,3.92
2023-02-14T08:51:00.452Z,3.10
2023-02-14T08:53:29.103Z,3.10
2023-02-14T08:56:02.016Z,3.47
2023-02-14T08:58:32.777Z,3.35
2023-02-14T09:01:01.654Z,3.00
2023-02-14T09:03:30.448Z,2.75
2023-02-14T09:06:09.184Z,3.22
2023-02-14T09:08:39.029Z,2.35
2023-02-14T09:11:19.420Z,2.30
2023-02-14T09:13:49.068Z,3.30
2023-02-14T09:16:19.011Z,2.45
2023-02-14T09:18:47.745Z,2.40
2023-02-14T09:21:18.973Z,2.87
2023-02-14T09:23:47.646Z,2.75
2023-02-14T09:26:17.704Z,2.85
2023-02-14T09:28:46.998Z,3.10
2023-02-14T09:31:21.427Z,2.72
2023-02-14T09:34:09.776Z,2.70
2023-02-14T09:36:56.842Z,2.50
2023-02-14T09:39:25.226Z,2.83
2023-02-14T09:42:15.006Z,3.20
2023-02-14T09:44:54.830Z,2.67
2023-02-14T09:47:39.376Z,3.28
2023-02-14T09:50:18.326Z,2.80
2023-02-14T09:52:51.545Z,2.47
2023-02-14T09:55:20.108Z,3.15
2023-02-14T09:58:08.243Z,2.72
2023-02-14T10:01:05.021Z,2.85
2023-02-14T10:03:59.569Z,2.97
2023-02-14T10:06:48.774Z,2.03
2023-02-14T10:09:54.346Z,2.72
2023-02-14T10:12:31.287Z,2.60
2023-02-14T10:15:04.903Z,2.62
2023-02-14T10:17:49.337Z,2.65
2023-02-14T10:20:28.069Z,2.78
2023-02-14T10:23:14.761Z,2.45
2023-02-14T10:25:54.312Z,2.40
2023-02-14T10:28:31.442Z,2.50
2023-02-14T10:31:19.453Z,2.62
2023-02-14T10:33:57.894Z,2.53
2023-02-14T10:36:26.324Z,2.58
2023-02-14T10:39:30.828Z,2.92
2023-02-14T10:42:21.333Z,2.20
2023-02-14T10:45:02.723Z,2.55
2023-02-14T10:47:57.334Z,2.60
2023-02-14T10:50:34.963Z,2.47
2023-02-14T10:53:26.419Z,2.50
2023-02-14T10:56:04.186Z,2.20
2023-02-14T10:58:38.441Z,2.85
2023-02-14T11:01:14.232Z,2.20
2023-02-14T11:04:06.635Z,2.53
2023-02-14T11:06:34.985Z,2.37
2023-02-14T11:09:04.449Z,2.55
2023-02-14T11:11:39.094Z,2.33
2023-02-14T11:14:32.370Z,2.53
2023-02-14T11:17:20.150Z,2.70
2023-02-14T11:19:58.771Z,2.60
2023-02-14T11:22:31.285Z,2.15
2023-02-14T11:25:17.976Z,2.70
2023-02-14T11:27:50.233Z,2.90
2023-02-14T11:30:26.435Z,2.22
2023-02-14T11:32:57.561Z,2.72
2023-02-14T11:35:33.908Z,2.67
2023-02-14T11:38:05.976Z,2.62
2023-02-14T11:40:36.181Z,3.10
2023-02-14T11:43:14.852Z,2.10
2023-02-14T11:45:45.918Z,2.58
2023-02-14T11:48:37.177Z,2.65
2023-02-14T11:51:15.724Z,2.15
2023-02-14T11:53:45.850Z,2.08
2023-02-14T11:56:20.343Z,2.75
2023-02-14T11:58:54.498Z,2.53
2023-02-14T12:01:38.882Z,2.22
2023-02-14T12:04:23.346Z,2.65
2023-02-14T12:06:51.522Z,1.48
2023-02-14T12:09:22.734Z,2.10
2023-02-14T12:11:57.930Z,1.75
2023-02-14T12:14:35.491Z,1.92
2023-02-14T12:17:25.935Z,2.08
2023-02-14T12:20:12.146Z,2.53
2023-02-14T12:22:58.316Z,1.83
2023-02-14T12:25:40.026Z,2.55
2023-02-14T12:28:18.837Z,1.95
2023-02-14T12:30:49.553Z,2.10
2023-02-14T12:33:23.740Z,2.90
2023-02-14T12:35:55.413Z,2.85
2023-02-14T12:38:39.413Z,1.87
2023-02-14T12:41:23.911Z,2.40
2023-02-14T12:44:12.619Z,2.12
2023-02-14T12:46:51.455Z,2.08
2023-02-14T12:49:44.513Z,1.85
2023-02-14T12:53:01.734Z,2.00
2023-02-14T12:55:49.561Z,2.50
2023-02-14T12:58:45.166Z,1.77
2023-02-14T13:01:16.330Z,1.87
2023-02-14T13:04:05.198Z,1.65
2023-02-14T13:06:41.256Z,2.87
2023-02-14T13:09:24.649Z,3.12
2023-02-14T13:11:56.236Z,2.45
2023-02-14T13:14:38.126Z,2.72
2023-02-14T13:17:44.130Z,2.35
2023-02-14T13:20:43.319Z,2.03
2023-02-14T13:23:43.588Z,1.87
2023-02-14T13:26:14.476Z,2.00
2023-02-14T13:28:55.955Z,2.30
2023-02-14T13:31:24.992Z,2.00
2023-02-14T13:34:28.562Z,1.98
2023-02-14T13:36:59.371Z,2.05
2023-02-14T13:39:44.329Z,2.75
2023-02-14T13:42:13.200Z,2.12
2023-02-14T13:44:50.272Z,2.47
2023-02-14T13:47:24.632Z,2.12
2023-02-14T13:50:03.218Z,2.35
2023-02-14T13:52:48.775Z,2.45
2023-02-14T13:55:21.867Z,1.92
2023-02-14T13:58:07.654Z,2.15
2023-02-14T14:00:41.613Z,2.05
2023-02-14T14:03:36.742Z,1.65
2023-02-14T14:06:10.897Z,2.05
2023-02-14T14:08:48.840Z,2.00
2023-02-14T14:11:23.135Z,2.55
2023-02-14T14:13:59.297Z,2.33
2023-02-14T14:16:35.756Z,2.67
2023-02-14T14:19:04.896Z,2.35
2023-02-14T14:21:43.692Z,1.73
2023-02-14T14:24:27.597Z,2.30
2023-02-14T14:27:24.647Z,2.47
2023-02-14T14:30:01.491Z,2.62
2023-02-14T14:32:33.856Z,1.73
2023-02-14T14:35:05.743Z,1.55
2023-02-14T14:37:56.633Z,2.58
2023-02-14T14:40:35.769Z,2.17
2023-02-14T14:43:31.820Z,2.22
2023-02-14T14:46:02.741Z,1.73
2023-02-14T14:48:42.473Z,3.12
2023-02-14T14:51:28.581Z,2.70
2023-02-14T14:54:08.579Z,3.30
2023-02-14T14:56:44.918Z,1.90
2023-02-14T14:59:37.400Z,1.85
2023-02-14T15:02:41.491Z,1.98
2023-02-14T15:05:23.334Z,2.42
2023-02-14T15:07:52.371Z,2.62
2023-02-14T15:10:26.598Z,2.37
2023-02-14T15:13:17.462Z,2.80
2023-02-14T15:15:51.360Z,2.40
2023-02-14T15:18:21.359Z,2.33
2023-02-14T15:20:51.919Z,2.35
2023-02-14T15:23:24.104Z,2.87
2023-02-14T15:25:52.777Z,2.60
2023-02-14T15:28:28.456Z,2.70
2023-02-14T15:31:05.474Z,3.17
2023-02-14T15:33:34.664Z,2.90
2023-02-14T15:36:06.803Z,2.17
2023-02-14T15:38:41.927Z,3.70
2023-02-14T15:41:12.580Z,2.45
2023-02-14T15:43:41.367Z,2.50
2023-02-14T15:46:18.532Z,3.47
2023-02-14T15:48:48.387Z,3.65
2023-02-14T15:51:24.653Z,3.78
2023-02-14T15:54:05.509Z,3.80
2023-02-14T15:56:43.265Z,2.12
2023-02-14T15:59:14.775Z,3.72
2023-02-14T16:02:03.841Z,3.85
2023-02-14T16:04:35.252Z,3.17
2023-02-14T16:07:23.406Z,2.70
2023-02-14T16:10:20.493Z,2.87
2023-02-14T16:13:01.258Z,3.20
2023-02-14T16:15:35.786Z,2.85
2023-02-14T16:18:16.720Z,3.87
2023-02-14T16:20:48.888Z,2.97
2023-02-14T16:23:19.391Z,2.58
2023-02-14T16:25:48.947Z,2.85
2023-02-14T16:28:17.792Z,2.12
2023-02-14T16:30:53.002Z,2.50
2023-02-14T16:33:25.393Z,1.73
2023-02-14T16:35:55.109Z,2.37
2023-02-14T16:38:23.722Z,2.50
2023-02-14T16:40:54.491Z,2.45
2023-02-14T16:43:23.529Z,2.65
2023-02-14T16:45:54.020Z,3.35
2023-02-14T16:48:22.955Z,3.15
2023-02-14T16:50:51.706Z,3.70
2023-02-14T16:53:27.909Z,3.50
2023-02-14T16:55:58.039Z,3.55
2023-02-14T16:58:34.686Z,3.28
2023-02-14T17:01:07.958Z,4.57
2023-02-14T17:03:36.168Z,4.85
2023-02-14T17:06:06.288Z,4.03
2023-02-14T17:08:35.604Z,4.07
2023-02-14T17:11:05.755Z,2.78
2023-02-14T17:13:40.635Z,2.53
2023-02-14T17:16:11.986Z,2.75
2023-02-14T17:18:43.029Z,2.08
2023-02-14T17:21:11.915Z,2.45
2023-02-14T17:23:40.270Z,3.03
2023-02-14T17:26:09.110Z,3.00
2023-02-14T17:28:37.670Z,2.83
2023-02-14T17:31:06.916Z,3.53
2023-02-14T17:33:37.152Z,3.17
2023-02-14T17:36:10.094Z,2.03
2023-02-14T17:38:43.354Z,2.97
2023-02-14T17:41:29.937Z,2.83
2023-02-14T17:44:01.997Z,2.60
2023-02-14T17:46:31.578Z,2.97
2023-02-14T17:49:02.744Z,2.50
2023-02-14T17:51:31.708Z,2.75
2023-02-14T17:53:59.847Z,2.47
2023-02-14T17:56:28.220Z,2.67
2023-02-14T17:58:57.092Z,3.20
2023-02-14T18:01:28.025Z,3.85
2023-02-14T18:03:56.845Z,3.30
2023-02-14T18:06:26.724Z,3.80
2023-02-14T18:08:57.963Z,3.03
2023-02-14T18:11:28.101Z,4.32
2023-02-14T18:13:58.813Z,3.25
2023-02-14T18:16:27.667Z,3.35
2023-02-14T18:18:56.328Z,3.15
2023-02-14T18:21:25.447Z,2.42
2023-02-14T18:23:54.368Z,2.70
2023-02-14T18:26:22.679Z,3.28
2023-02-14T18:28:53.418Z,2.53
2023-02-14T18:31:22.216Z,2.53
2023-02-14T18:33:51.000Z,4.10
2023-02-14T18:36:21.812Z,1.92
2023-02-14T18:38:50.595Z,3.83
2023-02-14T18:41:21.453Z,2.92
2023-02-14T18:43:50.879Z,2.00
2023-02-14T18:46:22.565Z,3.12
2023-02-14T18:48:52.258Z,3.45
2023-02-14T18:51:30.486Z,2.50
2023-02-14T18:54:01.438Z,2.92
2023-02-14T18:56:33.488Z,3.37
2023-02-14T18:59:05.857Z,2.80
2023-02-14T19:01:37.767Z,2.78
2023-02-14T19:04:08.995Z,3.10
2023-02-14T19:06:38.219Z,2.12
2023-02-14T19:09:12.347Z,4.03
2023-02-14T19:11:41.558Z,5.12
2023-02-14T19:14:12.717Z,4.62
2023-02-14T19:16:50.355Z,3.05
2023-02-14T19:19:20.037Z,3.12
2023-02-14T19:21:48.675Z,2.62
2023-02-14T19:24:19.507Z,2.83
2023-02-14T19:26:48.425Z,2.75
2023-02-14T19:29:18.659Z,3.33
2023-02-14T19:31:49.910Z,3.83
2023-02-14T19:34:23.681Z,3.95
2023-02-14T19:36:53.488Z,3.17
2023-02-14T19:39:23.223Z,3.72
2023-02-14T19:41:52.316Z,3.95
2023-02-14T19:44:24.167Z,5.05
2023-02-14T19:46:56.711Z,3.53
2023-02-14T19:49:27.846Z,2.90
2023-02-14T19:51:57.334Z,2.60
2023-02-14T19:54:26.081Z,2.72
2023-02-14T19:56:56.248Z,6.87
2023-02-14T19:59:25.346Z,8.13
2023-02-14T20:01:54.675Z,7.28
2023-02-14T20:04:27.606Z,7.65
2023-02-14T20:06:57.106Z,5.35
2023-02-14T20:09:26.614Z,8.77
2023-02-14T20:11:57.852Z,8.25
2023-02-14T20:14:43.654Z,6.90
2023-02-14T20:17:19.782Z,4.87
2023-02-14T20:19:49.075Z,6.35
2023-02-14T20:22:17.888Z,7.80
2023-02-14T20:24:46.647Z,5.70
2023-02-14T20:27:15.439Z,4.22
2023-02-14T20:29:45.015Z,3.12
2023-02-14T20:32:15.831Z,3.47
2023-02-14T20:34:45.292Z,5.12
2023-02-14T20:37:14.661Z,4.53
2023-02-14T20:39:43.632Z,6.43
2023-02-14T20:42:12.348Z,4.72
2023-02-14T20:44:41.598Z,2.78
2023-02-14T20:47:11.316Z,2.95
2023-02-14T20:49:44.655Z,3.22
2023-02-14T20:52:13.447Z,4.00
2023-02-14T20:54:42.227Z,2.90
2023-02-14T20:57:10.617Z,5.40
2023-02-14T20:59:44.343Z,10.93
2023-02-14T21:02:13.906Z,7.12
2023-02-14T21:04:44.426Z,6.43
2023-02-14T21:07:13.210Z,6.25
2023-02-14T21:09:41.681Z,6.75
2023-02-14T21:12:10.401Z,7.18
2023-02-14T21:14:39.362Z,7.15
2023-02-14T21:17:07.717Z,6.82
2023-02-14T21:19:36.337Z,7.22
2023-02-14T21:22:06.330Z,7.72
2023-02-14T21:24:34.812Z,7.85
2023-02-14T21:27:04.460Z,6.10
2023-02-14T21:29:33.282Z,5.70
2023-02-14T21:32:03.618Z,5.22
2023-02-14T21:34:32.296Z,6.00
2023-02-14T21:37:01.502Z,5.95
2023-02-14T21:39:31.057Z,5.47
2023-02-14T21:42:01.048Z,3.75
2023-02-14T21:44:48.263Z,5.30
2023-02-14T21:47:16.964Z,4.68
2023-02-14T21:50:04.515Z,8.13
2023-02-14T21:52:34.300Z,5.12
2023-02-14T21:55:03.246Z,4.15
2023-02-14T21:57:34.954Z,5.07
2023-02-14T22:00:05.619Z,11.07
2023-02-14T22:02:40.125Z,10.55
2023-02-14T22:05:08.796Z,8.93
2023-02-14T22:07:37.764Z,8.07
2023-02-14T22:10:06.747Z,4.65
2023-02-14T22:12:35.310Z,3.58
2023-02-14T22:15:03.779Z,4.22
2023-02-14T22:17:33.352Z,4.15
2023-02-14T22:20:01.801Z,5.43
2023-02-14T22:22:29.928Z,7.07
2023-02-14T22:25:01.189Z,5.65
2023-02-14T22:27:30.245Z,4.20
2023-02-14T22:29:58.581Z,3.97
2023-02-14T22:32:26.848Z,3.00
2023-02-14T22:34:55.288Z,4.00
2023-02-14T22:37:23.367Z,2.30
2023-02-14T22:39:51.770Z,3.53
2023-02-14T22:42:20.317Z,5.55
2023-02-14T22:44:48.537Z,4.75
2023-02-14T22:47:16.778Z,3.90
2023-02-14T22:49:45.947Z,5.12
2023-02-14T22:52:14.151Z,4.87
2023-02-14T22:54:42.738Z,4.50
2023-02-14T22:57:11.094Z,4.72
2023-02-14T22:59:40.036Z,5.78
2023-02-14T23:02:09.908Z,3.05
2023-02-14T23:04:38.692Z,4.68
2023-02-14T23:07:06.973Z,3.92
2023-02-14T23:09:35.094Z,5.32
2023-02-14T23:12:04.780Z,4.60
2023-02-14T23:14:51.892Z,3.87
2023-02-14T23:17:46.527Z,4.00
2023-02-14T23:20:43.902Z,3.97
2023-02-14T23:23:12.344Z,2.17
2023-02-14T23:25:43.258Z,3.45
2023-02-14T23:28:11.343Z,2.95
2023-02-14T23:30:39.897Z,3.05
2023-02-14T23:33:08.302Z,2.92
2023-02-14T23:35:37.851Z,2.40
2023-02-14T23:38:06.694Z,3.10
2023-02-14T23:40:55.121Z,2.20
2023-02-14T23:43:23.621Z,2.85
2023-02-14T23:45:52.411Z,2.33
2023-02-14T23:48:20.684Z,2.33
2023-02-14T23:50:49.232Z,2.78
2023-02-14T23:53:17.775Z,1.90
2023-02-14T23:55:46.178Z,2.58
2023-02-14T23:58:14.540Z,1.52
